createdAt,value
2022-08-16T00:00:47.491Z,66.82
2022-08-16T00:03:20.492Z,68.47
2022-08-16T00:05:57.575Z,68.66
2022-08-16T00:08:36.088Z,66.44
2022-08-16T00:11:06.646Z,65.48
2022-08-16T00:13:41.851Z,66.46
2022-08-16T00:17:06.250Z,67.19
2022-08-16T00:19:00.791Z,67.84
2022-08-16T00:21:29.295Z,68.42
2022-08-16T00:23:59.643Z,67.87
2022-08-16T00:26:36.834Z,67.29
2022-08-16T00:29:13.075Z,64.65
2022-08-16T00:31:59.352Z,62.98
2022-08-16T00:34:43.419Z,61.67
2022-08-16T00:37:20.738Z,60.97
2022-08-16T00:39:56.913Z,60.73
2022-08-16T00:42:30.685Z,60.33
2022-08-16T00:45:06.349Z,60.48
2022-08-16T00:47:42.485Z,60.23
2022-08-16T00:50:14.008Z,59.80
2022-08-16T00:52:50.279Z,59.84
2022-08-16T00:55:23.059Z,60.18
2022-08-16T00:57:59.274Z,60.05
2022-08-16T01:00:31.813Z,59.84
2022-08-16T01:03:02.309Z,61.41
2022-08-16T01:05:32.818Z,60.01
2022-08-16T01:08:02.718Z,61.79
2022-08-16T01:10:53.156Z,61.17
2022-08-16T01:13:26.660Z,60.95
2022-08-16T01:15:59.034Z,61.24
2022-08-16T01:18:40.208Z,61.36
2022-08-16T01:21:22.850Z,61.10
2022-08-16T01:24:52.726Z,61.08
2022-08-16T01:27:04.211Z,61.03
2022-08-16T01:29:56.808Z,60.96
2022-08-16T01:32:33.771Z,61.59
2022-08-16T01:35:06.006Z,60.66
2022-08-16T01:37:44.316Z,60.76
2022-08-16T01:40:25.504Z,60.94
2022-08-16T01:42:56.480Z,61.12
2022-08-16T01:45:40.597Z,61.72
2022-08-16T01:48:19.225Z,61.57
2022-08-16T01:51:16.247Z,59.57
2022-08-16T01:53:41.106Z,59.96
2022-08-16T01:56:24.322Z,58.65
2022-08-16T01:58:55.280Z,59.40
2022-08-16T02:01:26.174Z,58.80
2022-08-16T02:03:58.503Z,58.63
2022-08-16T02:06:34.252Z,57.79
2022-08-16T02:09:05.641Z,58.21
2022-08-16T02:11:47.909Z,58.46
2022-08-16T02:14:22.553Z,58.68
2022-08-16T02:16:56.461Z,57.96
2022-08-16T02:19:59.187Z,58.97
2022-08-16T02:22:33.603Z,57.80
2022-08-16T02:25:09.972Z,58.35
2022-08-16T02:27:40.967Z,58.22
2022-08-16T02:30:35.725Z,59.18
2022-08-16T02:33:03.544Z,58.97
2022-08-16T02:35:33.278Z,59.93
2022-08-16T02:38:08.605Z,60.25
2022-08-16T02:40:37.620Z,61.06
2022-08-16T02:43:08.301Z,61.91
2022-08-16T02:45:36.459Z,62.47
2022-08-16T02:48:28.870Z,63.61
2022-08-16T02:51:06.043Z,64.19
2022-08-16T02:53:39.313Z,64.16
2022-08-16T02:56:14.654Z,64.60
2022-08-16T02:58:45.451Z,65.38
2022-08-16T03:01:24.722Z,65.45
2022-08-16T03:04:39.696Z,66.01
2022-08-16T03:06:56.603Z,66.06
2022-08-16T03:09:28.821Z,65.67
2022-08-16T03:11:58.364Z,64.85
2022-08-16T03:14:30.725Z,64.14
2022-08-16T03:17:00.692Z,63.25
2022-08-16T03:19:48.504Z,62.57
2022-08-16T03:22:28.403Z,61.80
2022-08-16T03:25:01.205Z,62.17
2022-08-16T03:27:31.250Z,61.47
2022-08-16T03:30:16.059Z,60.45
2022-08-16T03:32:47.711Z,60.84
2022-08-16T03:35:22.408Z,60.19
2022-08-16T03:38:03.231Z,59.94
2022-08-16T03:40:34.171Z,59.28
2022-08-16T03:43:20.303Z,59.72
2022-08-16T03:45:53.747Z,59.50
2022-08-16T03:48:36.585Z,59.46
2022-08-16T03:51:12.229Z,58.96
2022-08-16T03:53:41.998Z,59.03
2022-08-16T03:56:18.690Z,59.26
2022-08-16T03:58:50.832Z,59.45
2022-08-16T04:01:23.003Z,58.89
2022-08-16T04:03:52.777Z,58.83
2022-08-16T04:06:22.245Z,58.48
2022-08-16T04:08:50.838Z,58.86
2022-08-16T04:11:19.752Z,58.70
2022-08-16T04:14:01.371Z,58.76
2022-08-16T04:16:38.767Z,58.47
2022-08-16T04:19:07.207Z,58.34
2022-08-16T04:21:45.945Z,58.70
2022-08-16T04:24:15.706Z,58.46
2022-08-16T04:26:46.316Z,58.71
2022-08-16T04:29:24.426Z,58.35
2022-08-16T04:31:57.984Z,58.05
2022-08-16T04:34:28.824Z,58.40
2022-08-16T04:36:58.166Z,58.38
2022-08-16T04:39:45.632Z,58.32
2022-08-16T04:42:16.077Z,58.03
2022-08-16T04:44:57.509Z,57.43
2022-08-16T04:47:35.458Z,58.39
2022-08-16T04:50:06.516Z,58.32
2022-08-16T04:52:36.648Z,59.63
2022-08-16T04:55:11.926Z,59.10
2022-08-16T04:57:41.968Z,59.12
2022-08-16T05:00:32.914Z,58.74
2022-08-16T05:03:07.038Z,59.56
2022-08-16T05:05:55.622Z,59.52
2022-08-16T05:08:27.967Z,59.82
2022-08-16T05:11:03.363Z,60.25
2022-08-16T05:13:41.112Z,60.89
2022-08-16T05:16:16.765Z,60.01
2022-08-16T05:18:52.844Z,59.00
2022-08-16T05:21:22.343Z,59.84
2022-08-16T05:23:55.814Z,59.53
2022-08-16T05:26:28.398Z,59.13
2022-08-16T05:28:57.748Z,58.80
2022-08-16T05:31:29.655Z,58.12
2022-08-16T05:34:03.079Z,58.67
2022-08-16T05:36:34.240Z,58.84
2022-08-16T05:39:08.712Z,58.09
2022-08-16T05:41:45.682Z,57.63
2022-08-16T05:44:23.926Z,57.20
2022-08-16T05:46:55.128Z,57.91
2022-08-16T05:49:38.911Z,57.93
2022-08-16T05:52:11.637Z,58.52
2022-08-16T05:54:46.733Z,57.98
2022-08-16T05:57:16.742Z,57.85
2022-08-16T05:59:47.618Z,57.32
2022-08-16T06:02:19.727Z,58.29
2022-08-16T06:04:49.631Z,57.17
2022-08-16T06:07:24.680Z,57.55
2022-08-16T06:09:56.412Z,57.69
2022-08-16T06:12:26.803Z,56.98
2022-08-16T06:14:59.513Z,57.31
2022-08-16T06:17:41.176Z,57.07
2022-08-16T06:20:18.221Z,55.60
2022-08-16T06:22:58.683Z,56.95
2022-08-16T06:25:36.523Z,57.60
2022-08-16T06:28:17.318Z,55.88
2022-08-16T06:30:59.803Z,55.83
2022-08-16T06:33:30.420Z,55.44
2022-08-16T06:36:14.291Z,55.34
2022-08-16T06:38:56.161Z,56.51
2022-08-16T06:41:27.608Z,57.53
2022-08-16T06:43:56.649Z,57.40
2022-08-16T06:46:31.907Z,55.38
2022-08-16T06:49:01.818Z,56.32
2022-08-16T06:51:45.912Z,53.86
2022-08-16T06:54:17.303Z,55.24
2022-08-16T06:56:45.802Z,56.05
2022-08-16T06:59:14.067Z,54.80
2022-08-16T07:01:43.189Z,55.32
2022-08-16T07:04:12.953Z,55.23
2022-08-16T07:07:02.106Z,56.11
2022-08-16T07:09:31.590Z,54.81
2022-08-16T07:12:02.929Z,54.93
2022-08-16T07:14:32.281Z,54.33
2022-08-16T07:17:01.233Z,53.91
2022-08-16T07:20:01.684Z,54.59
2022-08-16T07:22:36.625Z,54.95
2022-08-16T07:25:09.315Z,54.00
2022-08-16T07:27:38.824Z,54.33
2022-08-16T07:30:39.785Z,55.10
2022-08-16T07:33:00.817Z,55.99
2022-08-16T07:35:29.171Z,56.69
2022-08-16T07:37:59.031Z,58.92
2022-08-16T07:40:57.997Z,62.01
2022-08-16T07:43:15.825Z,61.51
2022-08-16T07:45:48.256Z,61.20
2022-08-16T07:48:22.253Z,62.19
2022-08-16T07:50:56.352Z,61.39
2022-08-16T07:53:29.427Z,61.94
2022-08-16T07:55:59.525Z,63.07
2022-08-16T07:58:34.187Z,64.25
2022-08-16T08:01:10.511Z,62.45
2022-08-16T08:03:42.554Z,62.73
2022-08-16T08:06:13.654Z,62.41
2022-08-16T08:08:49.703Z,61.30
2022-08-16T08:11:23.620Z,61.56
2022-08-16T08:13:53.832Z,61.56
2022-08-16T08:16:30.349Z,61.02
2022-08-16T08:19:02.808Z,60.20
2022-08-16T08:21:58.806Z,60.26
2022-08-16T08:24:31.576Z,59.50
2022-08-16T08:27:02.216Z,61.09
2022-08-16T08:29:37.696Z,62.80
2022-08-16T08:32:58.775Z,63.42
2022-08-16T08:35:03.283Z,65.02
2022-08-16T08:37:54.595Z,67.65
2022-08-16T08:40:24.662Z,72.84
2022-08-16T08:42:57.803Z,73.01
2022-08-16T08:45:46.928Z,73.53
2022-08-16T08:48:35.125Z,73.83
2022-08-16T08:51:09.254Z,75.67
2022-08-16T08:53:38.929Z,79.18
2022-08-16T08:56:23.039Z,79.59
2022-08-16T08:58:58.847Z,79.25
2022-08-16T09:01:36.923Z,76.31
2022-08-16T09:04:14.890Z,75.63
2022-08-16T09:06:47.704Z,76.54
2022-08-16T09:09:17.718Z,74.59
2022-08-16T09:12:06.588Z,76.90
2022-08-16T09:14:38.787Z,74.63
2022-08-16T09:17:38.235Z,73.35
2022-08-16T09:20:07.759Z,69.29
2022-08-16T09:22:36.387Z,63.46
2022-08-16T09:25:10.173Z,61.26
2022-08-16T09:27:56.811Z,62.10
2022-08-16T09:30:33.444Z,59.43
2022-08-16T09:33:02.257Z,57.33
2022-08-16T09:35:31.607Z,57.51
2022-08-16T09:38:05.835Z,56.93
2022-08-16T09:40:42.556Z,52.82
2022-08-16T09:43:46.583Z,51.33
2022-08-16T09:46:45.731Z,52.08
2022-08-16T09:48:56.710Z,51.62
2022-08-16T09:51:30.799Z,52.36
2022-08-16T09:54:06.291Z,51.60
2022-08-16T09:56:53.229Z,51.41
2022-08-16T09:59:25.493Z,47.73
2022-08-16T10:02:01.067Z,46.15
2022-08-16T10:04:54.604Z,45.12
2022-08-16T10:07:23.889Z,45.29
2022-08-16T10:09:55.335Z,44.54
2022-08-16T10:12:43.454Z,43.09
2022-08-16T10:15:17.197Z,43.95
2022-08-16T10:18:00.736Z,44.27
2022-08-16T10:20:34.058Z,42.76
2022-08-16T10:23:07.240Z,44.88
2022-08-16T10:27:19.647Z,44.89
2022-08-16T10:28:32.065Z,42.29
2022-08-16T10:31:04.266Z,43.63
2022-08-16T10:33:34.813Z,43.25
2022-08-16T10:36:10.215Z,44.63
2022-08-16T10:38:42.585Z,43.87
2022-08-16T10:41:16.149Z,43.73
2022-08-16T10:43:45.329Z,43.92
2022-08-16T10:46:39.098Z,43.36
2022-08-16T10:49:09.292Z,43.22
2022-08-16T10:52:03.137Z,42.84
2022-08-16T10:54:29.059Z,45.62
2022-08-16T10:56:59.444Z,41.01
2022-08-16T10:59:39.206Z,42.03
2022-08-16T11:03:00.446Z,41.56
2022-08-16T11:05:11.776Z,42.43
2022-08-16T11:07:43.401Z,42.49
2022-08-16T11:11:04.972Z,42.11
2022-08-16T11:15:57.798Z,41.65
2022-08-16T11:19:04.699Z,41.22
2022-08-16T11:21:29.424Z,40.44
2022-08-16T11:23:59.651Z,41.40
2022-08-16T11:26:28.932Z,38.94
2022-08-16T11:29:14.535Z,39.86
2022-08-16T11:31:45.948Z,39.31
2022-08-16T11:34:24.966Z,40.55
2022-08-16T11:37:01.135Z,41.43
2022-08-16T11:39:30.658Z,40.10
2022-08-16T11:42:00.171Z,37.81
2022-08-16T11:44:40.648Z,37.44
2022-08-16T11:47:16.952Z,38.15
2022-08-16T11:49:46.758Z,38.00
2022-08-16T11:52:17.767Z,37.70
2022-08-16T11:54:56.946Z,37.42
2022-08-16T11:57:28.376Z,38.10
2022-08-16T11:59:56.615Z,38.52
2022-08-16T12:02:31.332Z,38.75
2022-08-16T12:05:02.566Z,37.61
2022-08-16T12:07:33.248Z,38.55
2022-08-16T12:10:02.237Z,40.01
2022-08-16T12:12:30.796Z,38.71
2022-08-16T12:15:01.517Z,37.82
2022-08-16T12:17:31.978Z,37.27
2022-08-16T12:20:04.715Z,38.19
2022-08-16T12:22:33.991Z,37.80
2022-08-16T12:25:16.807Z,37.29
2022-08-16T12:27:47.203Z,37.15
2022-08-16T12:30:27.028Z,36.38
2022-08-16T12:33:03.050Z,36.23
2022-08-16T12:35:33.825Z,36.32
2022-08-16T12:38:37.973Z,35.22
2022-08-16T12:40:57.091Z,35.53
2022-08-16T12:43:26.022Z,34.99
2022-08-16T12:45:59.775Z,35.30
2022-08-16T12:48:47.095Z,34.96
2022-08-16T12:51:22.375Z,34.50
2022-08-16T12:53:54.486Z,33.38
2022-08-16T12:56:25.711Z,34.37
2022-08-16T12:58:56.103Z,36.36
2022-08-16T13:01:28.879Z,33.52
2022-08-16T13:04:11.633Z,33.86
2022-08-16T13:06:44.383Z,32.31
2022-08-16T13:09:26.854Z,34.13
2022-08-16T13:12:05.678Z,32.51
2022-08-16T13:14:36.233Z,33.08
2022-08-16T13:17:07.158Z,30.43
2022-08-16T13:20:06.080Z,31.40
2022-08-16T13:22:26.947Z,32.24
2022-08-16T13:24:55.984Z,31.42
2022-08-16T13:27:34.993Z,30.33
2022-08-16T13:30:35.533Z,30.06
2022-08-16T13:33:02.167Z,30.32
2022-08-16T13:35:43.161Z,29.79
2022-08-16T13:38:25.106Z,28.71
2022-08-16T13:40:56.681Z,29.88
2022-08-16T13:43:26.599Z,29.95
2022-08-16T13:45:56.118Z,28.31
2022-08-16T13:48:26.133Z,28.46
2022-08-16T13:50:55.234Z,27.52
2022-08-16T13:53:28.584Z,28.28
2022-08-16T13:55:58.945Z,28.57
2022-08-16T13:58:37.028Z,29.73
2022-08-16T14:01:17.522Z,29.70
2022-08-16T14:03:47.383Z,29.16
2022-08-16T14:06:18.578Z,29.22
2022-08-16T14:08:59.032Z,29.22
2022-08-16T14:11:35.930Z,27.78
2022-08-16T14:14:05.286Z,28.12
2022-08-16T14:16:35.212Z,28.07
2022-08-16T14:19:03.869Z,28.60
2022-08-16T14:21:34.842Z,27.86
2022-08-16T14:24:08.084Z,27.80
2022-08-16T14:26:52.672Z,29.34
2022-08-16T14:29:21.693Z,28.66
2022-08-16T14:31:53.987Z,28.38
2022-08-16T14:34:25.766Z,28.09
2022-08-16T14:36:58.268Z,27.58
2022-08-16T14:39:29.651Z,27.18
2022-08-16T14:42:06.053Z,27.74
2022-08-16T14:44:34.684Z,27.63
2022-08-16T14:47:04.317Z,26.81
2022-08-16T14:49:34.728Z,27.39
2022-08-16T14:52:08.406Z,26.79
2022-08-16T14:54:39.682Z,26.13
2022-08-16T14:57:08.574Z,27.31
2022-08-16T14:59:37.595Z,27.88
2022-08-16T15:02:17.242Z,28.87
2022-08-16T15:05:04.618Z,29.96
2022-08-16T15:07:35.399Z,30.16
2022-08-16T15:10:06.642Z,30.73
2022-08-16T15:12:36.235Z,31.72
2022-08-16T15:15:12.710Z,32.13
2022-08-16T15:17:56.159Z,32.78
2022-08-16T15:20:29.644Z,32.44
2022-08-16T15:22:59.513Z,33.66
2022-08-16T15:25:33.244Z,33.65
2022-08-16T15:28:05.667Z,33.83
2022-08-16T15:30:58.450Z,34.30
2022-08-16T15:33:27.039Z,34.05
2022-08-16T15:35:58.225Z,34.53
2022-08-16T15:38:58.190Z,33.60
2022-08-16T15:41:47.050Z,31.73
2022-08-16T15:44:22.314Z,27.69
2022-08-16T15:46:54.574Z,25.37
2022-08-16T15:49:37.141Z,24.98
2022-08-16T15:52:11.761Z,24.47
2022-08-16T15:54:52.481Z,24.62
2022-08-16T15:57:24.493Z,23.62
2022-08-16T15:59:56.301Z,22.94
2022-08-16T16:02:33.689Z,22.92
2022-08-16T16:05:04.600Z,23.21
2022-08-16T16:07:33.917Z,22.84
2022-08-16T16:10:04.044Z,22.51
2022-08-16T16:12:51.608Z,20.98
2022-08-16T16:15:25.438Z,20.26
2022-08-16T16:17:55.502Z,20.10
2022-08-16T16:20:27.154Z,20.51
2022-08-16T16:22:57.685Z,24.08
2022-08-16T16:25:27.002Z,24.06
2022-08-16T16:27:59.734Z,22.89
2022-08-16T16:30:38.305Z,21.66
2022-08-16T16:33:20.507Z,21.05
2022-08-16T16:35:56.677Z,21.57
2022-08-16T16:38:29.069Z,23.09
2022-08-16T16:40:58.514Z,23.70
2022-08-16T16:43:31.648Z,24.47
2022-08-16T16:46:02.710Z,25.42
2022-08-16T16:48:35.418Z,26.60
2022-08-16T16:51:09.905Z,29.14
2022-08-16T16:53:42.264Z,31.91
2022-08-16T16:56:19.897Z,33.22
2022-08-16T16:59:00.835Z,35.23
2022-08-16T17:01:56.559Z,34.80
2022-08-16T17:04:31.416Z,36.49
2022-08-16T17:07:01.323Z,36.76
2022-08-16T17:09:29.842Z,38.62
2022-08-16T17:11:59.490Z,39.42
2022-08-16T17:14:33.340Z,41.76
2022-08-16T17:17:06.270Z,44.08
2022-08-16T17:19:40.197Z,45.42
2022-08-16T17:22:14.368Z,46.56
2022-08-16T17:27:37.490Z,49.49
2022-08-16T17:30:16.038Z,50.46
2022-08-16T17:32:50.106Z,50.04
2022-08-16T17:35:23.245Z,50.46
2022-08-16T17:38:04.822Z,50.61
2022-08-16T17:39:27.988Z,47.04
2022-08-16T17:40:47.077Z,52.99
2022-08-16T17:43:27.649Z,53.75
2022-08-16T17:45:58.894Z,52.91
2022-08-16T17:48:27.793Z,52.68
2022-08-16T17:50:56.164Z,54.56
2022-08-16T17:53:25.029Z,54.54
2022-08-16T17:55:54.701Z,52.25
2022-08-16T17:58:24.488Z,55.16
2022-08-16T18:00:56.384Z,54.88
2022-08-16T18:04:02.810Z,55.92
2022-08-16T18:06:18.797Z,58.42
2022-08-16T18:08:48.911Z,58.07
2022-08-16T18:11:24.253Z,58.44
2022-08-16T18:13:55.885Z,57.43
2022-08-16T18:16:24.359Z,57.22
2022-08-16T18:18:54.168Z,58.65
2022-08-16T18:21:40.045Z,57.29
2022-08-16T18:24:08.915Z,58.59
2022-08-16T18:26:37.528Z,59.24
2022-08-16T18:29:06.477Z,58.86
2022-08-16T18:31:35.183Z,59.12
2022-08-16T18:34:04.974Z,60.80
2022-08-16T18:36:33.542Z,61.64
2022-08-16T18:39:02.215Z,60.27
2022-08-16T18:41:30.675Z,60.50
2022-08-16T18:44:25.047Z,59.28
2022-08-16T18:46:50.933Z,59.35
2022-08-16T18:49:21.233Z,59.18
2022-08-16T18:51:51.039Z,59.13
2022-08-16T18:54:19.780Z,60.57
2022-08-16T18:56:56.298Z,61.25
2022-08-16T18:59:27.514Z,62.83
2022-08-16T19:02:00.028Z,62.37
2022-08-16T19:04:47.966Z,61.59
2022-08-16T19:07:31.302Z,60.02
2022-08-16T19:10:01.348Z,60.39
2022-08-16T19:12:38.173Z,60.47
2022-08-16T19:15:13.500Z,60.77
2022-08-16T19:17:43.254Z,61.53
2022-08-16T19:20:15.299Z,62.14
2022-08-16T19:25:47.039Z,59.74
2022-08-16T19:28:52.045Z,61.67
2022-08-16T19:31:06.638Z,59.65
2022-08-16T19:33:35.020Z,60.85
2022-08-16T19:36:07.190Z,62.04
2022-08-16T19:38:40.028Z,62.16
2022-08-16T19:41:08.653Z,63.93
2022-08-16T19:43:37.119Z,63.84
2022-08-16T19:46:05.599Z,63.49
2022-08-16T19:48:33.858Z,63.47
2022-08-16T19:51:02.242Z,63.51
2022-08-16T19:53:31.918Z,64.77
2022-08-16T19:56:00.630Z,64.54
2022-08-16T19:58:29.230Z,63.10
2022-08-16T20:00:57.963Z,63.03
2022-08-16T20:03:27.590Z,63.37
2022-08-16T20:05:57.065Z,64.45
2022-08-16T20:08:25.730Z,62.95
2022-08-16T20:10:55.498Z,62.38
2022-08-16T20:13:25.349Z,62.65
2022-08-16T20:15:54.026Z,61.91
2022-08-16T20:18:25.429Z,62.14
2022-08-16T20:20:56.185Z,61.90
2022-08-16T20:23:25.487Z,61.27
2022-08-16T20:26:03.459Z,60.36
2022-08-16T20:28:51.730Z,61.16
2022-08-16T20:31:21.015Z,61.84
2022-08-16T20:33:50.644Z,63.40
2022-08-16T20:36:19.010Z,64.79
2022-08-16T20:38:48.112Z,64.22
2022-08-16T20:41:18.891Z,63.28
2022-08-16T20:43:48.686Z,63.86
2022-08-16T20:46:17.090Z,64.42
2022-08-16T20:48:45.482Z,65.32
2022-08-16T20:51:13.866Z,66.47
2022-08-16T20:53:43.288Z,65.77
2022-08-16T20:56:12.687Z,65.97
2022-08-16T20:58:42.502Z,64.78
2022-08-16T21:01:10.816Z,64.69
2022-08-16T21:03:39.671Z,64.83
2022-08-16T21:06:08.383Z,65.73
2022-08-16T21:08:53.209Z,66.05
2022-08-16T21:11:23.767Z,65.18
2022-08-16T21:14:00.077Z,64.67
2022-08-16T21:16:28.885Z,64.98
2022-08-16T21:18:57.154Z,64.46
2022-08-16T21:21:31.852Z,65.62
2022-08-16T21:24:01.828Z,65.39
2022-08-16T21:26:30.340Z,66.31
2022-08-16T21:28:59.987Z,66.64
2022-08-16T21:31:28.229Z,66.33
2022-08-16T21:33:56.638Z,66.83
2022-08-16T21:36:35.866Z,66.51
2022-08-16T21:39:06.718Z,68.10
2022-08-16T21:41:35.782Z,69.49
2022-08-16T21:44:06.090Z,68.99
2022-08-16T21:46:34.739Z,69.03
2022-08-16T21:49:04.804Z,69.66
2022-08-16T21:51:33.409Z,68.61
2022-08-16T21:54:01.700Z,68.30
2022-08-16T21:56:30.107Z,67.17
2022-08-16T21:58:58.449Z,68.52
2022-08-16T22:01:29.631Z,69.70
2022-08-16T22:04:35.229Z,68.55
2022-08-16T22:06:46.279Z,70.56
2022-08-16T22:09:16.546Z,71.05
2022-08-16T22:11:45.929Z,71.62
2022-08-16T22:14:14.125Z,70.67
2022-08-16T22:16:44.228Z,70.01
2022-08-16T22:19:13.746Z,69.58
2022-08-16T22:21:42.215Z,69.90
2022-08-16T22:24:11.131Z,70.14
2022-08-16T22:26:43.285Z,70.54
2022-08-16T22:29:15.075Z,70.70
2022-08-16T22:31:45.508Z,70.10
2022-08-16T22:34:14.303Z,69.87
2022-08-16T22:36:44.486Z,69.26
2022-08-16T22:39:15.248Z,70.89
2022-08-16T22:41:45.923Z,71.10
2022-08-16T22:44:14.670Z,71.55
2022-08-16T22:46:44.662Z,70.66
2022-08-16T22:49:13.762Z,70.01
2022-08-16T22:51:42.499Z,70.03
2022-08-16T22:54:44.319Z,72.00
2022-08-16T22:56:59.673Z,71.86
2022-08-16T22:59:28.859Z,72.28
2022-08-16T23:01:58.601Z,70.26
2022-08-16T23:04:27.110Z,71.19
2022-08-16T23:06:55.549Z,72.09
2022-08-16T23:09:23.866Z,72.51
2022-08-16T23:11:52.123Z,72.99
2022-08-16T23:14:20.549Z,73.60
2022-08-16T23:16:48.811Z,72.58
2022-08-16T23:19:19.207Z,71.79
2022-08-16T23:21:49.530Z,71.81
2022-08-16T23:24:20.635Z,72.12
2022-08-16T23:26:49.847Z,72.63
2022-08-16T23:29:24.451Z,72.92
2022-08-16T23:31:56.962Z,73.78
2022-08-16T23:34:28.199Z,74.23
2022-08-16T23:36:57.024Z,74.74
2022-08-16T23:39:25.599Z,74.32
2022-08-16T23:41:54.015Z,73.17
2022-08-16T23:44:55.536Z,72.79
2022-08-16T23:47:11.042Z,72.74
2022-08-16T23:49:56.030Z,72.45
2022-08-16T23:52:42.236Z,72.83
2022-08-16T23:55:17.075Z,73.57
2022-08-16T23:57:46.354Z,74.21
